sensor_id;sensor_type;location;lat;lon;timestamp;P1;durP1;ratioP1;P2;durP2;ratioP2
71343;SDS011;59146;43.850;25.948;2024-03-08T00:00:26;65.13;;;30.55;;
71343;SDS011;59146;43.850;25.948;2024-03-08T00:02:52;62.67;;;29.20;;
71343;SDS011;59146;43.850;25.948;2024-03-08T00:05:19;58.60;;;29.77;;
71343;SDS011;59146;43.850;25.948;2024-03-08T00:07:44;51.97;;;24.73;;
71343;SDS011;59146;43.850;25.948;2024-03-08T00:10:10;54.83;;;27.75;;
71343;SDS011;59146;43.850;25.948;2024-03-08T00:12:41;57.45;;;29.38;;
71343;SDS011;59146;43.850;25.948;2024-03-08T00:15:11;71.35;;;32.05;;
71343;SDS011;59146;43.850;25.948;2024-03-08T00:17:39;54.83;;;28.67;;
71343;SDS011;59146;43.850;25.948;2024-03-08T00:20:05;63.65;;;31.45;;
71343;SDS011;59146;43.850;25.948;2024-03-08T00:22:36;56.85;;;30.27;;
71343;SDS011;59146;43.850;25.948;2024-03-08T00:25:03;64.70;;;31.95;;
71343;SDS011;59146;43.850;25.948;2024-03-08T00:27:33;68.63;;;34.90;;
71343;SDS011;59146;43.850;25.948;2024-03-08T00:29:59;64.88;;;32.17;;
71343;SDS011;59146;43.850;25.948;2024-03-08T00:32:25;57.92;;;31.13;;
71343;SDS011;59146;43.850;25.948;2024-03-08T00:34:52;65.53;;;31.95;;
71343;SDS011;59146;43.850;25.948;2024-03-08T00:37:19;70.55;;;35.38;;
71343;SDS011;59146;43.850;25.948;2024-03-08T00:39:45;75.57;;;33.53;;
71343;SDS011;59146;43.850;25.948;2024-03-08T00:42:10;63.35;;;31.55;;
71343;SDS011;59146;43.850;25.948;2024-03-08T00:44:36;75.78;;;35.67;;
71343;SDS011;59146;43.850;25.948;2024-03-08T00:47:01;72.93;;;33.72;;
71343;SDS011;59146;43.850;25.948;2024-03-08T00:49:28;64.88;;;31.15;;
71343;SDS011;59146;43.850;25.948;2024-03-08T00:51:53;66.47;;;32.80;;
71343;SDS011;59146;43.850;25.948;2024-03-08T00:54:19;78.60;;;32.97;;
71343;SDS011;59146;43.850;25.948;2024-03-08T00:56:44;62.00;;;31.50;;
71343;SDS011;59146;43.850;25.948;2024-03-08T00:59:10;65.03;;;32.60;;
71343;SDS011;59146;43.850;25.948;2024-03-08T01:01:36;71.45;;;33.08;;
71343;SDS011;59146;43.850;25.948;2024-03-08T01:04:01;66.63;;;34.33;;
71343;SDS011;59146;43.850;25.948;2024-03-08T01:06:27;67.57;;;31.83;;
71343;SDS011;59146;43.850;25.948;2024-03-08T01:08:52;64.00;;;33.13;;
71343;SDS011;59146;43.850;25.948;2024-03-08T01:11:18;69.60;;;32.15;;
71343;SDS011;59146;43.850;25.948;2024-03-08T01:13:44;67.80;;;32.13;;
71343;SDS011;59146;43.850;25.948;2024-03-08T01:16:12;68.18;;;33.53;;
71343;SDS011;59146;43.850;25.948;2024-03-08T01:18:38;62.90;;;33.20;;
71343;SDS011;59146;43.850;25.948;2024-03-08T01:21:03;70.28;;;33.15;;
71343;SDS011;59146;43.850;25.948;2024-03-08T01:23:29;67.20;;;34.30;;
71343;SDS011;59146;43.850;25.948;2024-03-08T01:25:55;75.35;;;32.53;;
71343;SDS011;59146;43.850;25.948;2024-03-08T01:28:25;64.55;;;32.70;;
71343;SDS011;59146;43.850;25.948;2024-03-08T01:30:51;65.40;;;33.03;;
71343;SDS011;59146;43.850;25.948;2024-03-08T01:33:29;71.05;;;33.85;;
71343;SDS011;59146;43.850;25.948;2024-03-08T01:35:56;64.63;;;34.90;;
71343;SDS011;59146;43.850;25.948;2024-03-08T01:38:23;78.35;;;35.33;;
71343;SDS011;59146;43.850;25.948;2024-03-08T01:40:49;76.10;;;33.85;;
71343;SDS011;59146;43.850;25.948;2024-03-08T01:43:27;72.63;;;33.65;;
71343;SDS011;59146;43.850;25.948;2024-03-08T01:45:54;63.03;;;33.03;;
71343;SDS011;59146;43.850;25.948;2024-03-08T01:48:22;61.45;;;32.05;;
71343;SDS011;59146;43.850;25.948;2024-03-08T01:50:49;63.03;;;32.33;;
71343;SDS011;59146;43.850;25.948;2024-03-08T01:53:15;57.65;;;30.92;;
71343;SDS011;59146;43.850;25.948;2024-03-08T01:55:46;62.58;;;33.47;;
71343;SDS011;59146;43.850;25.948;2024-03-08T01:58:13;61.15;;;32.38;;
71343;SDS011;59146;43.850;25.948;2024-03-08T02:00:42;75.45;;;32.78;;
71343;SDS011;59146;43.850;25.948;2024-03-08T02:03:10;60.65;;;31.10;;
71343;SDS011;59146;43.850;25.948;2024-03-08T02:05:39;65.93;;;31.50;;
71343;SDS011;59146;43.850;25.948;2024-03-08T02:08:06;62.20;;;34.67;;
71343;SDS011;59146;43.850;25.948;2024-03-08T02:10:33;60.40;;;32.53;;
71343;SDS011;59146;43.850;25.948;2024-03-08T02:13:01;62.25;;;32.83;;
71343;SDS011;59146;43.850;25.948;2024-03-08T02:15:49;61.50;;;31.70;;
71343;SDS011;59146;43.850;25.948;2024-03-08T02:18:16;58.70;;;31.50;;
71343;SDS011;59146;43.850;25.948;2024-03-08T02:20:51;60.60;;;33.38;;
71343;SDS011;59146;43.850;25.948;2024-03-08T02:23:19;68.15;;;31.58;;
71343;SDS011;59146;43.850;25.948;2024-03-08T02:25:46;70.20;;;34.65;;
71343;SDS011;59146;43.850;25.948;2024-03-08T02:28:13;80.60;;;34.08;;
71343;SDS011;59146;43.850;25.948;2024-03-08T02:30:39;74.80;;;35.05;;
71343;SDS011;59146;43.850;25.948;2024-03-08T02:33:05;67.68;;;33.22;;
71343;SDS011;59146;43.850;25.948;2024-03-08T02:35:31;70.05;;;32.10;;
71343;SDS011;59146;43.850;25.948;2024-03-08T02:37:57;68.45;;;35.63;;
71343;SDS011;59146;43.850;25.948;2024-03-08T02:40:23;67.47;;;32.95;;
71343;SDS011;59146;43.850;25.948;2024-03-08T02:42:48;61.38;;;32.00;;
71343;SDS011;59146;43.850;25.948;2024-03-08T02:45:14;72.63;;;33.60;;
71343;SDS011;59146;43.850;25.948;2024-03-08T02:47:39;58.67;;;34.15;;
71343;SDS011;59146;43.850;25.948;2024-03-08T02:50:05;66.70;;;33.80;;
71343;SDS011;59146;43.850;25.948;2024-03-08T02:52:33;66.32;;;31.88;;
71343;SDS011;59146;43.850;25.948;2024-03-08T02:55:00;67.57;;;32.58;;
71343;SDS011;59146;43.850;25.948;2024-03-08T02:57:26;68.05;;;32.92;;
71343;SDS011;59146;43.850;25.948;2024-03-08T02:59:53;69.32;;;33.28;;
71343;SDS011;59146;43.850;25.948;2024-03-08T03:02:22;64.85;;;32.75;;
71343;SDS011;59146;43.850;25.948;2024-03-08T03:04:48;62.35;;;32.97;;
71343;SDS011;59146;43.850;25.948;2024-03-08T03:07:14;70.18;;;35.50;;
71343;SDS011;59146;43.850;25.948;2024-03-08T03:09:39;71.72;;;33.85;;
71343;SDS011;59146;43.850;25.948;2024-03-08T03:12:05;69.43;;;35.00;;
71343;SDS011;59146;43.850;25.948;2024-03-08T03:14:34;69.35;;;34.42;;
71343;SDS011;59146;43.850;25.948;2024-03-08T03:17:00;69.57;;;34.85;;
71343;SDS011;59146;43.850;25.948;2024-03-08T03:19:27;62.30;;;35.47;;
71343;SDS011;59146;43.850;25.948;2024-03-08T03:21:53;65.47;;;34.20;;
71343;SDS011;59146;43.850;25.948;2024-03-08T03:24:19;66.05;;;33.97;;
71343;SDS011;59146;43.850;25.948;2024-03-08T03:26:46;65.00;;;32.65;;
71343;SDS011;59146;43.850;25.948;2024-03-08T03:29:13;71.05;;;35.35;;
71343;SDS011;59146;43.850;25.948;2024-03-08T03:31:40;61.47;;;32.33;;
71343;SDS011;59146;43.850;25.948;2024-03-08T03:34:06;70.07;;;35.42;;
71343;SDS011;59146;43.850;25.948;2024-03-08T03:36:33;70.25;;;34.70;;
71343;SDS011;59146;43.850;25.948;2024-03-08T03:39:00;56.85;;;31.23;;
71343;SDS011;59146;43.850;25.948;2024-03-08T03:41:37;64.60;;;34.15;;
71343;SDS011;59146;43.850;25.948;2024-03-08T03:44:03;67.18;;;35.05;;
71343;SDS011;59146;43.850;25.948;2024-03-08T03:46:30;64.97;;;33.10;;
71343;SDS011;59146;43.850;25.948;2024-03-08T03:48:56;65.72;;;32.67;;
71343;SDS011;59146;43.850;25.948;2024-03-08T03:51:22;65.10;;;32.00;;
71343;SDS011;59146;43.850;25.948;2024-03-08T03:53:47;65.40;;;32.30;;
71343;SDS011;59146;43.850;25.948;2024-03-08T03:56:13;63.10;;;30.13;;
71343;SDS011;59146;43.850;25.948;2024-03-08T03:58:39;61.20;;;32.42;;
71343;SDS011;59146;43.850;25.948;2024-03-08T04:01:04;72.55;;;36.00;;
71343;SDS011;59146;43.850;25.948;2024-03-08T04:03:30;61.05;;;32.42;;
71343;SDS011;59146;43.850;25.948;2024-03-08T04:05:56;61.78;;;31.33;;
71343;SDS011;59146;43.850;25.948;2024-03-08T04:08:21;65.90;;;32.20;;
71343;SDS011;59146;43.850;25.948;2024-03-08T04:10:48;64.78;;;33.33;;
71343;SDS011;59146;43.850;25.948;2024-03-08T04:13:14;61.63;;;32.08;;
71343;SDS011;59146;43.850;25.948;2024-03-08T04:15:40;56.65;;;31.38;;
71343;SDS011;59146;43.850;25.948;2024-03-08T04:18:09;63.58;;;32.58;;
71343;SDS011;59146;43.850;25.948;2024-03-08T04:20:34;64.68;;;30.20;;
71343;SDS011;59146;43.850;25.948;2024-03-08T04:23:00;70.57;;;34.58;;
71343;SDS011;59146;43.850;25.948;2024-03-08T04:25:25;69.82;;;33.50;;
71343;SDS011;59146;43.850;25.948;2024-03-08T04:27:52;70.03;;;34.92;;
71343;SDS011;59146;43.850;25.948;2024-03-08T04:30:17;69.82;;;36.40;;
71343;SDS011;59146;43.850;25.948;2024-03-08T04:32:43;70.15;;;33.97;;
71343;SDS011;59146;43.850;25.948;2024-03-08T04:35:09;72.57;;;37.75;;
71343;SDS011;59146;43.850;25.948;2024-03-08T04:37:34;72.57;;;34.60;;
71343;SDS011;59146;43.850;25.948;2024-03-08T04:40:00;82.78;;;36.65;;
71343;SDS011;59146;43.850;25.948;2024-03-08T04:42:26;64.22;;;31.48;;
71343;SDS011;59146;43.850;25.948;2024-03-08T04:44:54;67.43;;;34.53;;
71343;SDS011;59146;43.850;25.948;2024-03-08T04:47:20;70.57;;;35.22;;
71343;SDS011;59146;43.850;25.948;2024-03-08T04:49:45;64.20;;;33.60;;
71343;SDS011;59146;43.850;25.948;2024-03-08T04:52:11;71.07;;;35.28;;
71343;SDS011;59146;43.850;25.948;2024-03-08T04:54:37;65.93;;;33.67;;
71343;SDS011;59146;43.850;25.948;2024-03-08T04:57:02;70.40;;;34.17;;
71343;SDS011;59146;43.850;25.948;2024-03-08T04:59:29;67.80;;;33.42;;
71343;SDS011;59146;43.850;25.948;2024-03-08T05:01:55;63.95;;;32.90;;
71343;SDS011;59146;43.850;25.948;2024-03-08T05:04:21;64.68;;;31.48;;
71343;SDS011;59146;43.850;25.948;2024-03-08T05:06:47;57.47;;;28.58;;
71343;SDS011;59146;43.850;25.948;2024-03-08T05:09:13;65.10;;;31.98;;
71343;SDS011;59146;43.850;25.948;2024-03-08T05:11:39;70.28;;;32.25;;
71343;SDS011;59146;43.850;25.948;2024-03-08T05:14:05;59.83;;;26.80;;
71343;SDS011;59146;43.850;25.948;2024-03-08T05:16:31;59.92;;;29.92;;
71343;SDS011;59146;43.850;25.948;2024-03-08T05:18:56;57.80;;;29.00;;
71343;SDS011;59146;43.850;25.948;2024-03-08T05:21:22;65.03;;;29.05;;
71343;SDS011;59146;43.850;25.948;2024-03-08T05:23:48;67.50;;;31.45;;
71343;SDS011;59146;43.850;25.948;2024-03-08T05:26:15;61.65;;;29.40;;
71343;SDS011;59146;43.850;25.948;2024-03-08T05:28:41;68.47;;;32.38;;
71343;SDS011;59146;43.850;25.948;2024-03-08T05:31:06;62.22;;;31.52;;
71343;SDS011;59146;43.850;25.948;2024-03-08T05:33:32;65.25;;;30.50;;
71343;SDS011;59146;43.850;25.948;2024-03-08T05:35:59;72.68;;;30.92;;
71343;SDS011;59146;43.850;25.948;2024-03-08T05:38:26;69.85;;;33.83;;
71343;SDS011;59146;43.850;25.948;2024-03-08T05:40:52;67.63;;;33.08;;
71343;SDS011;59146;43.850;25.948;2024-03-08T05:43:17;70.28;;;30.88;;
71343;SDS011;59146;43.850;25.948;2024-03-08T05:45:44;61.90;;;30.67;;
71343;SDS011;59146;43.850;25.948;2024-03-08T05:48:10;61.22;;;31.52;;
71343;SDS011;59146;43.850;25.948;2024-03-08T05:50:37;64.20;;;31.77;;
71343;SDS011;59146;43.850;25.948;2024-03-08T05:53:03;60.63;;;28.77;;
71343;SDS011;59146;43.850;25.948;2024-03-08T05:55:32;66.25;;;31.08;;
71343;SDS011;59146;43.850;25.948;2024-03-08T05:58:01;63.17;;;32.80;;
71343;SDS011;59146;43.850;25.948;2024-03-08T06:00:27;68.90;;;30.33;;
71343;SDS011;59146;43.850;25.948;2024-03-08T06:02:52;56.00;;;30.33;;
71343;SDS011;59146;43.850;25.948;2024-03-08T06:05:18;60.60;;;29.42;;
71343;SDS011;59146;43.850;25.948;2024-03-08T06:07:44;62.78;;;28.35;;
71343;SDS011;59146;43.850;25.948;2024-03-08T06:10:10;66.68;;;33.50;;
71343;SDS011;59146;43.850;25.948;2024-03-08T06:12:37;62.65;;;28.23;;
71343;SDS011;59146;43.850;25.948;2024-03-08T06:15:07;71.40;;;32.30;;
71343;SDS011;59146;43.850;25.948;2024-03-08T06:17:34;65.18;;;33.47;;
71343;SDS011;59146;43.850;25.948;2024-03-08T06:20:00;64.07;;;33.08;;
71343;SDS011;59146;43.850;25.948;2024-03-08T06:22:25;62.97;;;30.77;;
71343;SDS011;59146;43.850;25.948;2024-03-08T06:24:51;66.75;;;33.50;;
71343;SDS011;59146;43.850;25.948;2024-03-08T06:27:16;66.65;;;32.05;;
71343;SDS011;59146;43.850;25.948;2024-03-08T06:29:42;67.57;;;32.35;;
71343;SDS011;59146;43.850;25.948;2024-03-08T06:32:08;69.97;;;33.83;;
71343;SDS011;59146;43.850;25.948;2024-03-08T06:34:37;58.47;;;30.38;;
71343;SDS011;59146;43.850;25.948;2024-03-08T06:37:02;62.88;;;29.98;;
71343;SDS011;59146;43.850;25.948;2024-03-08T06:39:28;60.63;;;28.10;;
71343;SDS011;59146;43.850;25.948;2024-03-08T06:41:57;64.70;;;30.95;;
71343;SDS011;59146;43.850;25.948;2024-03-08T06:44:23;69.00;;;31.55;;
71343;SDS011;59146;43.850;25.948;2024-03-08T06:46:48;62.55;;;30.20;;
71343;SDS011;59146;43.850;25.948;2024-03-08T06:49:14;63.10;;;31.30;;
71343;SDS011;59146;43.850;25.948;2024-03-08T06:51:42;65.45;;;33.33;;
71343;SDS011;59146;43.850;25.948;2024-03-08T06:54:08;65.03;;;31.17;;
71343;SDS011;59146;43.850;25.948;2024-03-08T06:56:37;75.70;;;34.15;;
71343;SDS011;59146;43.850;25.948;2024-03-08T06:59:03;65.07;;;31.15;;
71343;SDS011;59146;43.850;25.948;2024-03-08T07:01:29;60.28;;;33.22;;
71343;SDS011;59146;43.850;25.948;2024-03-08T07:03:59;62.03;;;31.88;;
71343;SDS011;59146;43.850;25.948;2024-03-08T07:06:27;57.70;;;31.92;;
71343;SDS011;59146;43.850;25.948;2024-03-08T07:08:53;58.70;;;29.88;;
71343;SDS011;59146;43.850;25.948;2024-03-08T07:11:19;55.72;;;26.63;;
71343;SDS011;59146;43.850;25.948;2024-03-08T07:13:45;64.03;;;30.95;;
71343;SDS011;59146;43.850;25.948;2024-03-08T07:16:10;53.30;;;27.88;;
71343;SDS011;59146;43.850;25.948;2024-03-08T07:18:37;68.90;;;34.10;;
71343;SDS011;59146;43.850;25.948;2024-03-08T07:21:08;62.97;;;30.15;;
71343;SDS011;59146;43.850;25.948;2024-03-08T07:23:35;60.08;;;29.45;;
71343;SDS011;59146;43.850;25.948;2024-03-08T07:26:20;64.07;;;31.27;;
71343;SDS011;59146;43.850;25.948;2024-03-08T07:28:45;56.45;;;29.58;;
71343;SDS011;59146;43.850;25.948;2024-03-08T07:31:11;71.85;;;30.13;;
71343;SDS011;59146;43.850;25.948;2024-03-08T07:33:52;60.43;;;30.47;;
71343;SDS011;59146;43.850;25.948;2024-03-08T07:36:20;52.40;;;27.05;;
71343;SDS011;59146;43.850;25.948;2024-03-08T07:38:47;62.10;;;31.05;;
71343;SDS011;59146;43.850;25.948;2024-03-08T07:41:13;56.92;;;29.60;;
71343;SDS011;59146;43.850;25.948;2024-03-08T07:43:40;64.78;;;29.77;;
71343;SDS011;59146;43.850;25.948;2024-03-08T07:46:05;54.67;;;27.42;;
71343;SDS011;59146;43.850;25.948;2024-03-08T07:48:31;57.85;;;28.67;;
71343;SDS011;59146;43.850;25.948;2024-03-08T07:50:56;63.88;;;29.77;;
71343;SDS011;59146;43.850;25.948;2024-03-08T07:53:22;63.03;;;30.60;;
71343;SDS011;59146;43.850;25.948;2024-03-08T07:55:49;62.72;;;29.38;;
71343;SDS011;59146;43.850;25.948;2024-03-08T07:58:15;62.33;;;30.38;;
71343;SDS011;59146;43.850;25.948;2024-03-08T08:00:42;63.95;;;31.23;;
71343;SDS011;59146;43.850;25.948;2024-03-08T08:03:08;60.42;;;30.35;;
71343;SDS011;59146;43.850;25.948;2024-03-08T08:05:34;61.10;;;30.65;;
71343;SDS011;59146;43.850;25.948;2024-03-08T08:08:03;60.38;;;31.38;;
71343;SDS011;59146;43.850;25.948;2024-03-08T08:10:31;56.63;;;30.00;;
71343;SDS011;59146;43.850;25.948;2024-03-08T08:12:58;61.10;;;31.48;;
71343;SDS011;59146;43.850;25.948;2024-03-08T08:15:23;66.47;;;31.85;;
71343;SDS011;59146;43.850;25.948;2024-03-08T08:17:49;61.45;;;29.17;;
71343;SDS011;59146;43.850;25.948;2024-03-08T08:20:15;59.17;;;29.42;;
71343;SDS011;59146;43.850;25.948;2024-03-08T08:22:43;58.58;;;30.88;;
71343;SDS011;59146;43.850;25.948;2024-03-08T08:25:09;61.30;;;28.77;;
71343;SDS011;59146;43.850;25.948;2024-03-08T08:27:38;61.47;;;28.33;;
71343;SDS011;59146;43.850;25.948;2024-03-08T08:30:05;62.40;;;29.20;;
71343;SDS011;59146;43.850;25.948;2024-03-08T08:32:33;55.75;;;28.00;;
71343;SDS011;59146;43.850;25.948;2024-03-08T08:35:00;57.35;;;29.90;;
71343;SDS011;59146;43.850;25.948;2024-03-08T08:37:27;57.88;;;30.83;;
71343;SDS011;59146;43.850;25.948;2024-03-08T08:39:53;55.05;;;28.73;;
71343;SDS011;59146;43.850;25.948;2024-03-08T08:42:19;69.15;;;29.48;;
71343;SDS011;59146;43.850;25.948;2024-03-08T08:44:45;67.22;;;28.83;;
71343;SDS011;59146;43.850;25.948;2024-03-08T08:47:11;54.45;;;29.05;;
71343;SDS011;59146;43.850;25.948;2024-03-08T08:49:38;63.08;;;29.45;;
71343;SDS011;59146;43.850;25.948;2024-03-08T08:52:03;60.55;;;30.55;;
71343;SDS011;59146;43.850;25.948;2024-03-08T08:54:29;60.10;;;28.65;;
71343;SDS011;59146;43.850;25.948;2024-03-08T08:56:55;54.88;;;28.13;;
71343;SDS011;59146;43.850;25.948;2024-03-08T08:59:20;58.17;;;28.33;;
71343;SDS011;59146;43.850;25.948;2024-03-08T09:01:48;57.55;;;29.27;;
71343;SDS011;59146;43.850;25.948;2024-03-08T09:04:15;62.47;;;29.58;;
71343;SDS011;59146;43.850;25.948;2024-03-08T09:06:41;71.30;;;31.92;;
71343;SDS011;59146;43.850;25.948;2024-03-08T09:09:07;54.42;;;27.95;;
71343;SDS011;59146;43.850;25.948;2024-03-08T09:11:38;60.25;;;30.10;;
71343;SDS011;59146;43.850;25.948;2024-03-08T09:14:07;56.00;;;26.90;;
71343;SDS011;59146;43.850;25.948;2024-03-08T09:16:34;58.92;;;29.95;;
71343;SDS011;59146;43.850;25.948;2024-03-08T09:19:10;53.40;;;27.95;;
71343;SDS011;59146;43.850;25.948;2024-03-08T09:21:36;63.35;;;29.52;;
71343;SDS011;59146;43.850;25.948;2024-03-08T09:24:02;63.97;;;29.70;;
71343;SDS011;59146;43.850;25.948;2024-03-08T09:26:28;62.20;;;28.30;;
71343;SDS011;59146;43.850;25.948;2024-03-08T09:28:54;56.03;;;28.08;;
71343;SDS011;59146;43.850;25.948;2024-03-08T09:31:20;55.03;;;27.73;;
71343;SDS011;59146;43.850;25.948;2024-03-08T09:33:46;50.58;;;27.83;;
71343;SDS011;59146;43.850;25.948;2024-03-08T09:36:12;55.08;;;27.77;;
71343;SDS011;59146;43.850;25.948;2024-03-08T09:38:39;50.13;;;27.75;;
71343;SDS011;59146;43.850;25.948;2024-03-08T09:41:05;46.58;;;26.35;;
71343;SDS011;59146;43.850;25.948;2024-03-08T09:43:31;55.00;;;29.27;;
71343;SDS011;59146;43.850;25.948;2024-03-08T09:45:57;54.63;;;29.23;;
71343;SDS011;59146;43.850;25.948;2024-03-08T09:48:23;56.67;;;30.77;;
71343;SDS011;59146;43.850;25.948;2024-03-08T09:50:51;53.63;;;26.35;;
71343;SDS011;59146;43.850;25.948;2024-03-08T09:53:16;63.67;;;31.90;;
71343;SDS011;59146;43.850;25.948;2024-03-08T09:55:42;55.35;;;26.67;;
71343;SDS011;59146;43.850;25.948;2024-03-08T09:58:11;57.45;;;29.65;;
71343;SDS011;59146;43.850;25.948;2024-03-08T10:00:55;52.88;;;29.05;;
71343;SDS011;59146;43.850;25.948;2024-03-08T10:03:26;48.72;;;27.77;;
71343;SDS011;59146;43.850;25.948;2024-03-08T10:05:52;53.40;;;27.85;;
71343;SDS011;59146;43.850;25.948;2024-03-08T10:08:21;55.63;;;27.05;;
71343;SDS011;59146;43.850;25.948;2024-03-08T10:10:47;58.13;;;30.20;;
71343;SDS011;59146;43.850;25.948;2024-03-08T10:13:14;60.25;;;30.10;;
71343;SDS011;59146;43.850;25.948;2024-03-08T10:15:41;56.53;;;29.15;;
71343;SDS011;59146;43.850;25.948;2024-03-08T10:18:09;56.25;;;29.52;;
71343;SDS011;59146;43.850;25.948;2024-03-08T10:20:35;53.65;;;27.30;;
71343;SDS011;59146;43.850;25.948;2024-03-08T10:23:02;58.00;;;29.27;;
71343;SDS011;59146;43.850;25.948;2024-03-08T10:25:30;56.35;;;28.42;;
71343;SDS011;59146;43.850;25.948;2024-03-08T10:28:00;57.28;;;28.15;;
71343;SDS011;59146;43.850;25.948;2024-03-08T10:30:30;54.30;;;29.27;;
71343;SDS011;59146;43.850;25.948;2024-03-08T10:32:55;54.72;;;29.08;;
71343;SDS011;59146;43.850;25.948;2024-03-08T10:35:21;58.47;;;30.50;;
71343;SDS011;59146;43.850;25.948;2024-03-08T10:37:49;77.68;;;32.05;;
71343;SDS011;59146;43.850;25.948;2024-03-08T10:40:24;50.40;;;29.23;;
71343;SDS011;59146;43.850;25.948;2024-03-08T10:42:51;55.78;;;30.27;;
71343;SDS011;59146;43.850;25.948;2024-03-08T10:45:38;56.50;;;30.15;;
71343;SDS011;59146;43.850;25.948;2024-03-08T10:50:38;65.55;;;31.95;;
71343;SDS011;59146;43.850;25.948;2024-03-08T10:53:04;54.95;;;28.98;;
71343;SDS011;59146;43.850;25.948;2024-03-08T10:55:33;70.82;;;33.75;;
71343;SDS011;59146;43.850;25.948;2024-03-08T10:57:59;64.20;;;31.50;;
71343;SDS011;59146;43.850;25.948;2024-03-08T11:00:25;62.35;;;30.38;;
71343;SDS011;59146;43.850;25.948;2024-03-08T11:02:52;57.10;;;29.92;;
71343;SDS011;59146;43.850;25.948;2024-03-08T11:05:38;60.72;;;29.02;;
71343;SDS011;59146;43.850;25.948;2024-03-08T11:08:15;61.50;;;29.00;;
71343;SDS011;59146;43.850;25.948;2024-03-08T11:10:47;54.25;;;30.30;;
71343;SDS011;59146;43.850;25.948;2024-03-08T11:16:01;55.15;;;27.65;;
71343;SDS011;59146;43.850;25.948;2024-03-08T11:18:35;71.28;;;31.90;;
71343;SDS011;59146;43.850;25.948;2024-03-08T11:21:03;54.72;;;29.05;;
71343;SDS011;59146;43.850;25.948;2024-03-08T11:23:32;57.78;;;30.17;;
71343;SDS011;59146;43.850;25.948;2024-03-08T11:25:58;56.33;;;27.90;;
71343;SDS011;59146;43.850;25.948;2024-03-08T11:28:25;61.78;;;29.98;;
71343;SDS011;59146;43.850;25.948;2024-03-08T11:33:26;53.53;;;30.65;;
71343;SDS011;59146;43.850;25.948;2024-03-08T11:36:11;59.38;;;30.65;;
71343;SDS011;59146;43.850;25.948;2024-03-08T11:38:44;56.85;;;29.63;;
71343;SDS011;59146;43.850;25.948;2024-03-08T11:41:13;53.00;;;29.48;;
71343;SDS011;59146;43.850;25.948;2024-03-08T11:43:42;61.05;;;31.70;;
71343;SDS011;59146;43.850;25.948;2024-03-08T11:46:08;55.30;;;30.17;;
71343;SDS011;59146;43.850;25.948;2024-03-08T11:48:34;54.22;;;30.52;;
71343;SDS011;59146;43.850;25.948;2024-03-08T11:51:01;56.53;;;30.50;;
71343;SDS011;59146;43.850;25.948;2024-03-08T11:53:28;58.80;;;30.88;;
71343;SDS011;59146;43.850;25.948;2024-03-08T11:55:53;56.38;;;28.88;;
71343;SDS011;59146;43.850;25.948;2024-03-08T11:58:19;54.97;;;29.10;;
71343;SDS011;59146;43.850;25.948;2024-03-08T12:00:44;58.55;;;30.50;;
71343;SDS011;59146;43.850;25.948;2024-03-08T12:03:11;54.55;;;28.65;;
71343;SDS011;59146;43.850;25.948;2024-03-08T12:05:37;58.58;;;30.63;;
71343;SDS011;59146;43.850;25.948;2024-03-08T12:08:03;53.33;;;31.08;;
71343;SDS011;59146;43.850;25.948;2024-03-08T12:10:32;49.72;;;30.25;;
71343;SDS011;59146;43.850;25.948;2024-03-08T12:12:58;53.90;;;29.52;;
71343;SDS011;59146;43.850;25.948;2024-03-08T12:15:24;52.60;;;27.88;;
71343;SDS011;59146;43.850;25.948;2024-03-08T12:17:51;51.58;;;28.52;;
71343;SDS011;59146;43.850;25.948;2024-03-08T12:20:19;51.10;;;28.45;;
71343;SDS011;59146;43.850;25.948;2024-03-08T12:22:47;58.08;;;30.88;;
71343;SDS011;59146;43.850;25.948;2024-03-08T12:25:14;52.72;;;28.80;;
71343;SDS011;59146;43.850;25.948;2024-03-08T12:27:43;44.65;;;26.63;;
71343;SDS011;59146;43.850;25.948;2024-03-08T12:30:19;52.22;;;28.52;;
71343;SDS011;59146;43.850;25.948;2024-03-08T12:32:58;56.42;;;28.40;;
71343;SDS011;59146;43.850;25.948;2024-03-08T12:35:27;57.65;;;29.73;;
71343;SDS011;59146;43.850;25.948;2024-03-08T12:37:57;47.80;;;27.90;;
71343;SDS011;59146;43.850;25.948;2024-03-08T12:40:31;49.35;;;26.95;;
71343;SDS011;59146;43.850;25.948;2024-03-08T12:42:59;50.50;;;27.15;;
71343;SDS011;59146;43.850;25.948;2024-03-08T12:45:26;46.60;;;25.60;;
71343;SDS011;59146;43.850;25.948;2024-03-08T12:47:52;54.53;;;27.15;;
71343;SDS011;59146;43.850;25.948;2024-03-08T12:50:19;56.20;;;27.23;;
71343;SDS011;59146;43.850;25.948;2024-03-08T12:52:45;52.92;;;28.85;;
71343;SDS011;59146;43.850;25.948;2024-03-08T12:55:11;46.88;;;26.27;;
71343;SDS011;59146;43.850;25.948;2024-03-08T12:57:37;53.55;;;27.20;;
71343;SDS011;59146;43.850;25.948;2024-03-08T13:00:04;56.97;;;27.75;;
71343;SDS011;59146;43.850;25.948;2024-03-08T13:02:30;52.03;;;27.90;;
71343;SDS011;59146;43.850;25.948;2024-03-08T13:05:00;54.90;;;27.98;;
71343;SDS011;59146;43.850;25.948;2024-03-08T13:07:26;58.47;;;28.23;;
71343;SDS011;59146;43.850;25.948;2024-03-08T13:09:54;51.80;;;27.98;;
71343;SDS011;59146;43.850;25.948;2024-03-08T13:12:21;49.08;;;28.15;;
71343;SDS011;59146;43.850;25.948;2024-03-08T13:14:47;50.28;;;29.38;;
71343;SDS011;59146;43.850;25.948;2024-03-08T13:17:15;50.08;;;27.00;;
71343;SDS011;59146;43.850;25.948;2024-03-08T13:19:43;53.25;;;28.52;;
71343;SDS011;59146;43.850;25.948;2024-03-08T13:22:09;50.45;;;27.65;;
71343;SDS011;59146;43.850;25.948;2024-03-08T13:24:41;49.22;;;27.38;;
71343;SDS011;59146;43.850;25.948;2024-03-08T13:27:08;47.47;;;27.55;;
71343;SDS011;59146;43.850;25.948;2024-03-08T13:29:47;52.88;;;27.70;;
71343;SDS011;59146;43.850;25.948;2024-03-08T13:32:14;49.20;;;27.73;;
71343;SDS011;59146;43.850;25.948;2024-03-08T13:34:41;47.45;;;27.70;;
71343;SDS011;59146;43.850;25.948;2024-03-08T13:37:07;52.72;;;27.05;;
71343;SDS011;59146;43.850;25.948;2024-03-08T13:39:35;45.85;;;27.42;;
71343;SDS011;59146;43.850;25.948;2024-03-08T13:42:12;45.05;;;27.38;;
71343;SDS011;59146;43.850;25.948;2024-03-08T13:44:39;54.80;;;27.27;;
71343;SDS011;59146;43.850;25.948;2024-03-08T13:47:08;56.03;;;28.02;;
71343;SDS011;59146;43.850;25.948;2024-03-08T13:49:33;53.60;;;28.25;;
71343;SDS011;59146;43.850;25.948;2024-03-08T13:51:59;50.08;;;27.73;;
71343;SDS011;59146;43.850;25.948;2024-03-08T13:54:25;51.85;;;28.45;;
71343;SDS011;59146;43.850;25.948;2024-03-08T13:56:52;48.65;;;28.10;;
71343;SDS011;59146;43.850;25.948;2024-03-08T13:59:19;54.13;;;27.88;;
71343;SDS011;59146;43.850;25.948;2024-03-08T14:01:47;50.45;;;26.50;;
71343;SDS011;59146;43.850;25.948;2024-03-08T14:04:14;56.30;;;27.40;;
71343;SDS011;59146;43.850;25.948;2024-03-08T14:06:40;56.83;;;29.42;;
71343;SDS011;59146;43.850;25.948;2024-03-08T14:09:05;47.38;;;26.73;;
71343;SDS011;59146;43.850;25.948;2024-03-08T14:11:32;49.25;;;27.30;;
71343;SDS011;59146;43.850;25.948;2024-03-08T14:13:58;49.78;;;27.92;;
71343;SDS011;59146;43.850;25.948;2024-03-08T14:16:23;53.72;;;28.25;;